createdAt,value
2022-10-15T00:00:18.209Z,98.97
2022-10-15T00:02:46.008Z,98.41
2022-10-15T00:05:13.745Z,99.02
2022-10-15T00:07:42.132Z,98.59
2022-10-15T00:10:10.128Z,98.98
2022-10-15T00:12:37.854Z,98.37
2022-10-15T00:15:08.152Z,98.53
2022-10-15T00:17:36.550Z,98.35
2022-10-15T00:20:05.468Z,98.58
2022-10-15T00:22:33.492Z,98.88
2022-10-15T00:25:01.296Z,98.78
2022-10-15T00:27:29.119Z,98.17
2022-10-15T00:29:56.917Z,98.54
2022-10-15T00:32:26.242Z,98.34
2022-10-15T00:34:54.200Z,98.59
2022-10-15T00:37:22.351Z,98.97
2022-10-15T00:39:50.192Z,98.75
2022-10-15T00:42:18.547Z,99.06
2022-10-15T00:44:51.465Z,98.73
2022-10-15T00:47:25.097Z,99.46
2022-10-15T00:49:59.993Z,99.20
2022-10-15T00:52:34.001Z,99.03
2022-10-15T00:55:06.905Z,99.16
2022-10-15T00:57:35.549Z,99.01
2022-10-15T01:00:09.074Z,99.42
2022-10-15T01:02:36.855Z,99.40
2022-10-15T01:05:07.272Z,98.87
2022-10-15T01:07:35.176Z,99.44
2022-10-15T01:10:04.366Z,98.91
2022-10-15T01:12:44.407Z,98.48
2022-10-15T01:15:20.168Z,98.50
2022-10-15T01:17:51.748Z,98.93
2022-10-15T01:20:51.303Z,98.03
2022-10-15T01:24:03.655Z,98.16
2022-10-15T01:27:16.484Z,97.55
2022-10-15T01:30:23.965Z,97.59
2022-10-15T01:33:05.775Z,97.58
2022-10-15T01:35:44.333Z,97.58
2022-10-15T01:38:24.662Z,97.58
2022-10-15T01:40:56.387Z,97.76
2022-10-15T01:43:30.154Z,97.65
2022-10-15T01:46:03.175Z,97.81
2022-10-15T01:48:35.786Z,97.53
2022-10-15T01:51:07.082Z,97.62
2022-10-15T01:53:37.234Z,97.37
2022-10-15T01:56:09.325Z,97.72
2022-10-15T01:58:41.072Z,98.13
2022-10-15T02:01:09.325Z,97.78
2022-10-15T02:03:47.355Z,97.94
2022-10-15T02:06:22.770Z,98.14
2022-10-15T02:09:02.506Z,98.52
2022-10-15T02:11:33.247Z,98.20
2022-10-15T02:14:08.355Z,98.49
2022-10-15T02:16:41.237Z,98.34
2022-10-15T02:19:16.812Z,98.45
2022-10-15T02:21:49.107Z,98.63
2022-10-15T02:24:21.410Z,99.02
2022-10-15T02:26:52.411Z,99.33
2022-10-15T02:29:23.561Z,98.98
2022-10-15T02:31:52.715Z,98.88
2022-10-15T02:34:26.794Z,99.44
2022-10-15T02:36:55.776Z,99.27
2022-10-15T02:39:25.257Z,99.44
2022-10-15T02:41:54.602Z,99.63
2022-10-15T02:44:22.914Z,99.87
2022-10-15T02:46:50.646Z,98.73
2022-10-15T02:49:18.507Z,99.65
2022-10-15T02:51:47.644Z,100.00
2022-10-15T02:54:15.472Z,99.81
2022-10-15T02:56:43.235Z,100.00
2022-10-15T02:59:11.012Z,100.00
2022-10-15T03:01:38.800Z,99.84
2022-10-15T03:04:06.947Z,99.92
2022-10-15T03:06:34.675Z,100.00
2022-10-15T03:09:05.951Z,100.00
2022-10-15T03:11:36.494Z,100.00
2022-10-15T03:14:04.271Z,100.00
2022-10-15T03:16:32.024Z,100.00
2022-10-15T03:18:59.796Z,100.00
2022-10-15T03:21:30.990Z,100.00
2022-10-15T03:23:58.789Z,100.00
2022-10-15T03:26:28.284Z,100.00
2022-10-15T03:28:56.124Z,100.00
2022-10-15T03:31:23.948Z,100.00
2022-10-15T03:33:51.720Z,100.00
2022-10-15T03:36:19.544Z,100.00
2022-10-15T03:38:47.282Z,100.00
2022-10-15T03:41:15.101Z,100.00
2022-10-15T03:43:44.215Z,100.00
2022-10-15T03:46:11.992Z,100.00
2022-10-15T03:48:39.996Z,100.00
2022-10-15T03:51:07.753Z,100.00
2022-10-15T03:53:35.502Z,100.00
2022-10-15T03:56:07.466Z,100.00
2022-10-15T03:58:35.319Z,100.00
2022-10-15T04:01:09.687Z,100.00
2022-10-15T04:03:37.889Z,100.00
2022-10-15T04:06:06.164Z,100.00
2022-10-15T04:08:34.063Z,100.00
2022-10-15T04:11:01.922Z,100.00
2022-10-15T04:13:30.223Z,100.00
2022-10-15T04:15:57.964Z,100.00
2022-10-15T04:18:27.596Z,100.00
2022-10-15T04:20:55.425Z,100.00
2022-10-15T04:23:23.273Z,100.00
2022-10-15T04:25:51.012Z,100.00
2022-10-15T04:28:18.933Z,100.00
2022-10-15T04:30:46.773Z,100.00
2022-10-15T04:33:14.587Z,100.00
2022-10-15T04:35:43.735Z,100.00
2022-10-15T04:38:11.535Z,100.00
2022-10-15T04:40:39.321Z,100.00
2022-10-15T04:43:07.074Z,100.00
2022-10-15T04:45:34.833Z,100.00
2022-10-15T04:48:02.570Z,100.00
2022-10-15T04:50:30.302Z,100.00
2022-10-15T04:53:00.659Z,100.00
2022-10-15T04:55:28.437Z,100.00
2022-10-15T04:57:56.211Z,100.00
2022-10-15T05:00:27.014Z,100.00
2022-10-15T05:02:54.794Z,100.00
2022-10-15T05:05:22.548Z,100.00
2022-10-15T05:07:50.310Z,100.00
2022-10-15T05:10:19.489Z,100.00
2022-10-15T05:12:48.545Z,100.00
2022-10-15T05:15:18.159Z,100.00
2022-10-15T05:17:45.957Z,100.00
2022-10-15T05:20:13.705Z,100.00
2022-10-15T05:22:41.524Z,100.00
2022-10-15T05:25:10.273Z,100.00
2022-10-15T05:27:39.472Z,100.00
2022-10-15T05:30:08.021Z,100.00
2022-10-15T05:32:35.800Z,100.00
2022-10-15T05:35:03.768Z,100.00
2022-10-15T05:37:31.542Z,100.00
2022-10-15T05:39:59.349Z,100.00
2022-10-15T05:42:27.116Z,100.00
2022-10-15T05:44:56.301Z,100.00
2022-10-15T05:47:24.284Z,100.00
2022-10-15T05:49:52.226Z,100.00
2022-10-15T05:52:20.121Z,100.00
2022-10-15T05:54:48.021Z,100.00
2022-10-15T05:57:15.789Z,100.00
2022-10-15T05:59:43.593Z,100.00
2022-10-15T06:02:16.095Z,100.00
2022-10-15T06:04:44.133Z,100.00
2022-10-15T06:07:11.983Z,100.00
2022-10-15T06:09:39.741Z,100.00
2022-10-15T06:12:07.522Z,100.00
2022-10-15T06:14:35.284Z,100.00
2022-10-15T06:17:03.077Z,100.00
2022-10-15T06:19:32.241Z,100.00
2022-10-15T06:22:00.010Z,100.00
2022-10-15T06:24:27.852Z,100.00
2022-10-15T06:26:55.604Z,100.00
2022-10-15T06:29:23.432Z,100.00
2022-10-15T06:31:51.502Z,100.00
2022-10-15T06:34:19.281Z,100.00
2022-10-15T06:36:48.435Z,100.00
2022-10-15T06:39:16.380Z,100.00
2022-10-15T06:41:44.183Z,100.00
2022-10-15T06:44:11.972Z,100.00
2022-10-15T06:46:39.733Z,100.00
2022-10-15T06:49:07.491Z,100.00
2022-10-15T06:51:35.277Z,100.00
2022-10-15T06:54:04.674Z,100.00
2022-10-15T06:56:32.446Z,100.00
2022-10-15T06:59:00.251Z,100.00
2022-10-15T07:01:28.668Z,100.00
2022-10-15T07:03:56.436Z,100.00
2022-10-15T07:06:25.645Z,100.00
2022-10-15T07:08:53.421Z,100.00
2022-10-15T07:11:25.716Z,100.00
2022-10-15T07:13:53.523Z,100.00
2022-10-15T07:16:21.432Z,100.00
2022-10-15T07:18:49.709Z,100.00
2022-10-15T07:21:17.629Z,100.00
2022-10-15T07:23:45.396Z,100.00
2022-10-15T07:26:13.557Z,100.00
2022-10-15T07:28:42.722Z,100.00
2022-10-15T07:31:10.741Z,100.00
2022-10-15T07:33:43.760Z,100.00
2022-10-15T07:36:13.517Z,100.00
2022-10-15T07:38:41.331Z,100.00
2022-10-15T07:41:10.885Z,100.00
2022-10-15T07:43:39.083Z,100.00
2022-10-15T07:46:08.356Z,100.00
2022-10-15T07:48:36.182Z,100.00
2022-10-15T07:51:06.237Z,100.00
2022-10-15T07:53:35.125Z,100.00
2022-10-15T07:56:04.599Z,100.00
2022-10-15T07:58:34.646Z,100.00
2022-10-15T08:01:02.933Z,100.00
2022-10-15T08:03:32.304Z,100.00
2022-10-15T08:06:01.836Z,100.00
2022-10-15T08:08:29.750Z,100.00
2022-10-15T08:10:57.831Z,100.00
2022-10-15T08:13:25.966Z,100.00
2022-10-15T08:15:56.355Z,100.00
2022-10-15T08:18:27.606Z,100.00
2022-10-15T08:21:00.321Z,100.00
2022-10-15T08:23:28.560Z,100.00
2022-10-15T08:25:58.523Z,100.00
2022-10-15T08:28:26.353Z,100.00
2022-10-15T08:30:54.442Z,100.00
2022-10-15T08:33:22.270Z,100.00
2022-10-15T08:35:50.097Z,100.00
2022-10-15T08:38:19.951Z,100.00
2022-10-15T08:40:49.846Z,100.00
2022-10-15T08:43:23.707Z,100.00
2022-10-15T08:45:55.006Z,100.00
2022-10-15T08:48:29.505Z,100.00
2022-10-15T08:51:02.894Z,100.00
2022-10-15T08:53:39.580Z,100.00
2022-10-15T08:56:16.932Z,100.00
2022-10-15T08:58:52.151Z,100.00
2022-10-15T09:01:29.438Z,99.86
2022-10-15T09:04:08.134Z,100.00
2022-10-15T09:06:38.516Z,99.45
2022-10-15T09:09:17.761Z,99.35
2022-10-15T09:11:56.895Z,99.09
2022-10-15T09:14:31.144Z,99.54
2022-10-15T09:17:02.504Z,99.74
2022-10-15T09:19:32.364Z,98.93
2022-10-15T09:22:02.842Z,99.23
2022-10-15T09:24:35.250Z,98.81
2022-10-15T09:27:09.919Z,98.39
2022-10-15T09:29:43.369Z,98.82
2022-10-15T09:32:20.154Z,97.43
2022-10-15T09:34:54.457Z,97.42
2022-10-15T09:37:29.634Z,96.92
2022-10-15T09:40:23.327Z,96.08
2022-10-15T09:42:53.044Z,96.61
2022-10-15T09:45:24.058Z,94.82
2022-10-15T09:47:52.142Z,95.52
2022-10-15T09:50:20.041Z,96.37
2022-10-15T09:53:01.932Z,95.90
2022-10-15T09:55:38.237Z,95.71
2022-10-15T09:58:09.754Z,96.22
2022-10-15T10:00:59.730Z,94.63
2022-10-15T10:03:29.230Z,96.05
2022-10-15T10:06:09.286Z,95.02
2022-10-15T10:08:40.235Z,95.64
2022-10-15T10:11:11.625Z,94.57
2022-10-15T10:13:45.627Z,94.49
2022-10-15T10:16:18.416Z,95.15
2022-10-15T10:19:03.661Z,94.16
2022-10-15T10:21:33.022Z,94.62
2022-10-15T10:24:20.607Z,93.58
2022-10-15T10:26:49.957Z,93.78
2022-10-15T10:29:33.551Z,94.30
2022-10-15T10:32:01.645Z,92.98
2022-10-15T10:34:31.600Z,93.16
2022-10-15T10:37:03.461Z,93.56
2022-10-15T10:39:33.543Z,93.51
2022-10-15T10:42:05.359Z,93.89
2022-10-15T10:44:34.911Z,93.83
2022-10-15T10:47:13.802Z,94.50
2022-10-15T10:49:44.056Z,95.37
2022-10-15T10:52:29.051Z,94.73
2022-10-15T10:55:02.336Z,96.05
2022-10-15T10:57:41.553Z,96.10
2022-10-15T11:00:15.281Z,96.63
2022-10-15T11:02:44.116Z,96.66
2022-10-15T11:05:12.645Z,97.15
2022-10-15T11:07:48.634Z,96.93
2022-10-15T11:10:23.237Z,97.26
2022-10-15T11:13:07.793Z,97.52
2022-10-15T11:15:46.301Z,97.29
2022-10-15T11:18:31.714Z,97.59
2022-10-15T11:21:09.238Z,97.88
2022-10-15T11:23:52.539Z,98.17
2022-10-15T11:26:46.039Z,98.06
2022-10-15T11:29:28.705Z,98.28
2022-10-15T11:32:14.645Z,97.81
2022-10-15T11:34:59.553Z,98.84
2022-10-15T11:37:42.281Z,98.52
2022-10-15T11:40:21.892Z,98.43
2022-10-15T11:42:56.342Z,98.62
2022-10-15T11:45:48.928Z,98.12
2022-10-15T11:48:23.341Z,98.82
2022-10-15T11:50:57.567Z,98.76
2022-10-15T11:53:38.220Z,98.75
2022-10-15T11:56:12.039Z,99.06
2022-10-15T11:58:45.035Z,99.40
2022-10-15T12:01:20.802Z,99.28
2022-10-15T12:03:54.898Z,99.22
2022-10-15T12:06:27.121Z,99.48
2022-10-15T12:08:57.856Z,99.52
2022-10-15T12:11:39.368Z,99.72
2022-10-15T12:14:14.729Z,99.87
2022-10-15T12:16:52.702Z,99.45
2022-10-15T12:19:23.115Z,99.70
2022-10-15T12:22:09.587Z,99.72
2022-10-15T12:24:58.170Z,99.78
2022-10-15T12:27:37.772Z,99.74
2022-10-15T12:30:23.729Z,100.00
2022-10-15T12:32:53.265Z,100.00
2022-10-15T12:35:24.994Z,99.68
2022-10-15T12:37:53.241Z,99.99
2022-10-15T12:40:31.775Z,99.32
2022-10-15T12:43:02.543Z,99.23
2022-10-15T12:45:39.999Z,98.80
2022-10-15T12:48:29.859Z,98.44
2022-10-15T12:51:31.943Z,98.45
2022-10-15T12:54:00.865Z,99.02
2022-10-15T12:56:39.349Z,98.43
2022-10-15T12:59:31.840Z,98.56
2022-10-15T13:01:59.746Z,98.63
2022-10-15T13:04:40.772Z,97.82
2022-10-15T13:07:15.337Z,97.42
2022-10-15T13:09:43.225Z,97.81
2022-10-15T13:12:24.054Z,97.08
2022-10-15T13:14:59.167Z,97.19
2022-10-15T13:17:27.352Z,97.40
2022-10-15T13:19:59.232Z,97.29
2022-10-15T13:22:29.246Z,97.44
2022-10-15T13:24:57.841Z,97.56
2022-10-15T13:27:27.486Z,97.51
2022-10-15T13:29:57.684Z,97.73
2022-10-15T13:32:27.059Z,97.53
2022-10-15T13:34:57.538Z,97.48
2022-10-15T13:37:31.848Z,97.30
2022-10-15T13:40:03.197Z,97.35
2022-10-15T13:42:34.967Z,97.48
2022-10-15T13:45:05.600Z,98.09
2022-10-15T13:47:35.614Z,97.81
2022-10-15T13:50:18.309Z,97.12
2022-10-15T13:52:49.583Z,97.63
2022-10-15T13:55:25.926Z,97.18
2022-10-15T13:57:59.007Z,97.20
2022-10-15T14:00:30.429Z,97.00
2022-10-15T14:03:09.480Z,96.51
2022-10-15T14:05:38.619Z,97.18
2022-10-15T14:08:06.763Z,97.05
2022-10-15T14:10:34.568Z,97.12
2022-10-15T14:13:02.405Z,97.13
2022-10-15T14:15:54.505Z,97.64
2022-10-15T14:18:31.639Z,97.99
2022-10-15T14:21:01.801Z,98.49
2022-10-15T14:23:30.136Z,98.66
2022-10-15T14:25:59.875Z,99.09
2022-10-15T14:28:29.297Z,99.33
2022-10-15T14:30:57.921Z,99.17
2022-10-15T14:33:34.156Z,99.05
2022-10-15T14:36:09.566Z,99.68
2022-10-15T14:38:37.589Z,100.00
2022-10-15T14:41:09.339Z,100.00
2022-10-15T14:43:38.748Z,100.00
2022-10-15T14:46:08.845Z,100.00
2022-10-15T14:48:38.764Z,100.00
2022-10-15T14:51:13.851Z,99.42
2022-10-15T14:53:46.700Z,99.23
2022-10-15T14:56:18.438Z,99.55
2022-10-15T14:58:52.083Z,99.51
2022-10-15T15:01:21.524Z,99.46
2022-10-15T15:03:52.443Z,99.43
2022-10-15T15:06:21.669Z,99.39
2022-10-15T15:08:49.787Z,99.08
2022-10-15T15:11:22.090Z,99.17
2022-10-15T15:13:51.513Z,99.10
2022-10-15T15:16:19.590Z,98.76
2022-10-15T15:18:48.751Z,98.94
2022-10-15T15:21:20.091Z,98.77
2022-10-15T15:23:50.029Z,98.93
2022-10-15T15:26:17.969Z,99.03
2022-10-15T15:28:45.861Z,98.89
2022-10-15T15:31:17.642Z,98.83
2022-10-15T15:33:45.775Z,98.97
2022-10-15T15:36:18.992Z,98.65
2022-10-15T15:38:51.921Z,98.36
2022-10-15T15:41:21.225Z,98.66
2022-10-15T15:43:53.501Z,98.97
2022-10-15T15:46:36.570Z,98.84
2022-10-15T15:49:04.413Z,99.50
2022-10-15T15:54:17.192Z,99.82
2022-10-15T15:56:56.155Z,99.52
2022-10-15T15:59:31.652Z,100.00
2022-10-15T16:02:06.720Z,100.00
2022-10-15T16:04:46.833Z,99.75
2022-10-15T16:07:30.560Z,100.00
2022-10-15T16:10:06.812Z,100.00
2022-10-15T16:12:40.256Z,100.00
2022-10-15T16:15:14.699Z,100.00
2022-10-15T16:17:43.735Z,100.00
2022-10-15T16:20:14.298Z,100.00
2022-10-15T16:22:55.248Z,100.00
2022-10-15T16:25:37.112Z,99.96
2022-10-15T16:28:13.881Z,99.34
2022-10-15T16:30:45.160Z,97.96
2022-10-15T16:33:19.293Z,96.61
2022-10-15T16:36:01.683Z,94.02
2022-10-15T16:38:41.761Z,92.22
2022-10-15T16:41:16.306Z,91.39
2022-10-15T16:43:48.035Z,88.87
2022-10-15T16:46:20.157Z,86.84
2022-10-15T16:48:55.662Z,86.74
2022-10-15T16:51:35.645Z,86.13
2022-10-15T16:54:15.102Z,84.87
2022-10-15T16:56:52.742Z,85.01
2022-10-15T16:59:27.887Z,84.38
2022-10-15T17:01:58.568Z,84.99
2022-10-15T17:04:26.855Z,85.44
2022-10-15T17:06:54.981Z,85.72
2022-10-15T17:09:23.902Z,86.00
2022-10-15T17:11:53.808Z,85.07
2022-10-15T17:14:29.069Z,85.39
2022-10-15T17:16:57.376Z,85.83
2022-10-15T17:19:30.393Z,86.03
2022-10-15T17:22:02.882Z,86.51
2022-10-15T17:24:37.130Z,85.57
2022-10-15T17:27:07.154Z,85.23
2022-10-15T17:29:35.279Z,86.16
2022-10-15T17:32:22.624Z,85.64
2022-10-15T17:35:05.168Z,85.33
2022-10-15T17:40:01.114Z,84.62
2022-10-15T17:42:37.050Z,85.05
2022-10-15T17:45:07.792Z,85.89
2022-10-15T17:47:40.947Z,85.31
2022-10-15T17:50:17.727Z,84.92
2022-10-15T17:52:51.191Z,85.61
2022-10-15T17:55:19.471Z,86.16
2022-10-15T17:57:55.552Z,86.17
2022-10-15T18:00:23.762Z,87.09
2022-10-15T18:03:14.177Z,87.22
2022-10-15T18:05:45.586Z,87.67
2022-10-15T18:08:20.884Z,87.87
2022-10-15T18:11:10.839Z,86.87
2022-10-15T18:13:40.561Z,86.97
2022-10-15T18:16:12.364Z,86.98
2022-10-15T18:19:12.874Z,85.63
2022-10-15T18:21:48.687Z,86.83
2022-10-15T18:24:24.435Z,86.52
2022-10-15T18:27:04.170Z,86.55
2022-10-15T18:29:36.006Z,86.49
2022-10-15T18:32:10.872Z,87.22
2022-10-15T18:34:38.962Z,87.51
2022-10-15T18:37:07.184Z,87.88
2022-10-15T18:39:37.710Z,87.89
2022-10-15T18:42:10.925Z,88.40
2022-10-15T18:44:42.214Z,88.78
2022-10-15T18:47:17.976Z,87.84
2022-10-15T18:49:52.454Z,88.61
2022-10-15T18:52:38.862Z,88.19
2022-10-15T18:55:11.485Z,88.87
2022-10-15T18:57:51.057Z,88.53
2022-10-15T19:00:26.842Z,89.32
2022-10-15T19:02:58.111Z,89.11
2022-10-15T19:05:33.550Z,89.12
2022-10-15T19:08:06.577Z,89.30
2022-10-15T19:10:44.797Z,89.28
2022-10-15T19:13:41.206Z,89.04
2022-10-15T19:16:13.441Z,89.20
2022-10-15T19:18:49.215Z,89.79
2022-10-15T19:21:24.915Z,90.21
2022-10-15T19:23:55.576Z,90.90
2022-10-15T19:26:33.645Z,90.80
2022-10-15T19:29:07.156Z,90.96
2022-10-15T19:31:41.455Z,91.69
2022-10-15T19:34:14.049Z,92.35
2022-10-15T19:36:44.680Z,92.82
2022-10-15T19:39:22.339Z,92.60
2022-10-15T19:42:07.749Z,93.36
2022-10-15T19:44:50.855Z,94.03
2022-10-15T19:47:29.241Z,94.17
2022-10-15T19:50:00.999Z,94.11
2022-10-15T19:52:55.309Z,94.26
2022-10-15T19:55:29.336Z,95.06
2022-10-15T19:57:57.915Z,94.68
2022-10-15T20:00:29.692Z,94.95
2022-10-15T20:03:00.466Z,95.63
2022-10-15T20:05:30.769Z,95.09
2022-10-15T20:08:25.013Z,95.06
2022-10-15T20:11:02.632Z,95.40
2022-10-15T20:13:32.997Z,95.07
2022-10-15T20:16:07.809Z,95.53
2022-10-15T20:18:47.627Z,95.51
2022-10-15T20:21:27.032Z,95.72
2022-10-15T20:24:05.631Z,96.12
2022-10-15T20:26:41.539Z,96.09
2022-10-15T20:29:14.405Z,95.91
2022-10-15T20:31:49.513Z,96.39
2022-10-15T20:34:20.385Z,96.15
2022-10-15T20:37:08.848Z,96.83
2022-10-15T20:42:30.575Z,96.85
2022-10-15T20:45:02.667Z,96.75
2022-10-15T20:47:33.045Z,96.91
2022-10-15T20:50:30.273Z,97.37
2022-10-15T20:53:01.373Z,96.93
2022-10-15T20:55:37.991Z,97.58
2022-10-15T20:58:09.721Z,97.73
2022-10-15T21:01:04.733Z,97.80
2022-10-15T21:03:35.955Z,97.58
2022-10-15T21:06:20.764Z,97.89
2022-10-15T21:08:58.351Z,97.61
2022-10-15T21:11:29.491Z,98.29
2022-10-15T21:13:57.865Z,98.99
2022-10-15T21:19:11.345Z,98.86
2022-10-15T21:21:48.623Z,99.19
2022-10-15T21:24:30.437Z,99.85
2022-10-15T21:27:03.835Z,99.94
2022-10-15T21:29:40.243Z,99.66
2022-10-15T21:32:08.464Z,100.00
2022-10-15T21:34:42.548Z,100.00
2022-10-15T21:37:37.648Z,99.91
2022-10-15T21:40:09.949Z,100.00
2022-10-15T21:42:51.719Z,100.00
2022-10-15T21:45:27.367Z,100.00
2022-10-15T21:48:09.466Z,100.00
2022-10-15T21:50:40.994Z,100.00
2022-10-15T21:53:15.342Z,100.00
2022-10-15T21:56:14.757Z,100.00
2022-10-15T21:58:45.347Z,100.00
2022-10-15T22:01:19.979Z,100.00
2022-10-15T22:03:48.850Z,100.00
2022-10-15T22:06:37.253Z,100.00
2022-10-15T22:09:08.305Z,100.00
2022-10-15T22:11:46.338Z,100.00
2022-10-15T22:14:17.323Z,100.00
2022-10-15T22:16:45.205Z,100.00
2022-10-15T22:19:16.143Z,100.00
2022-10-15T22:21:44.379Z,100.00
2022-10-15T22:24:17.092Z,100.00
2022-10-15T22:26:46.805Z,100.00
2022-10-15T22:29:19.836Z,100.00
2022-10-15T22:31:47.800Z,100.00
2022-10-15T22:34:15.573Z,100.00
2022-10-15T22:36:43.551Z,100.00
2022-10-15T22:39:15.174Z,100.00
2022-10-15T22:41:45.283Z,99.93
2022-10-15T22:44:15.895Z,99.53
2022-10-15T22:46:46.238Z,99.92
2022-10-15T22:49:15.092Z,100.00
2022-10-15T22:51:43.286Z,99.77
2022-10-15T22:54:11.119Z,99.70
2022-10-15T22:56:40.249Z,99.64
2022-10-15T23:01:37.449Z,99.58
2022-10-15T23:04:07.333Z,100.00
2022-10-15T23:06:36.929Z,99.83
2022-10-15T23:09:06.279Z,99.90
2022-10-15T23:11:35.715Z,99.59
2022-10-15T23:14:06.838Z,99.91
2022-10-15T23:16:37.725Z,100.00
2022-10-15T23:19:07.061Z,100.00
2022-10-15T23:21:36.685Z,100.00
2022-10-15T23:24:05.668Z,100.00
2022-10-15T23:26:35.389Z,100.00
2022-10-15T23:29:05.795Z,100.00
2022-10-15T23:31:35.633Z,100.00
2022-10-15T23:34:04.983Z,100.00
2022-10-15T23:36:33.285Z,100.00
2022-10-15T23:39:03.680Z,100.00
2022-10-15T23:41:31.944Z,100.00
2022-10-15T23:44:00.325Z,100.00
2022-10-15T23:46:29.462Z,100.00
2022-10-15T23:48:57.400Z,100.00
2022-10-15T23:51:26.878Z,100.00
2022-10-15T23:53:56.233Z,100.00
2022-10-15T23:56:24.695Z,100.00
2022-10-15T23:58:53.729Z,100.00
